sensor_id;sensor_type;location;lat;lon;timestamp;P1;durP1;ratioP1;P2;durP2;ratioP2
4521;SDS011;2273;48.464;11.926;2023-04-07T00:01:42;25.40;;;16.63;;
4521;SDS011;2273;48.464;11.926;2023-04-07T00:04:07;21.17;;;13.67;;
4521;SDS011;2273;48.464;11.926;2023-04-07T00:06:33;19.73;;;13.70;;
4521;SDS011;2273;48.464;11.926;2023-04-07T00:08:58;20.90;;;13.80;;
4521;SDS011;2273;48.464;11.926;2023-04-07T00:11:23;21.70;;;13.90;;
4521;SDS011;2273;48.464;11.926;2023-04-07T00:13:49;21.10;;;14.17;;
4521;SDS011;2273;48.464;11.926;2023-04-07T00:16:14;21.57;;;13.00;;
4521;SDS011;2273;48.464;11.926;2023-04-07T00:18:40;20.20;;;13.77;;
4521;SDS011;2273;48.464;11.926;2023-04-07T00:21:06;19.90;;;12.73;;
4521;SDS011;2273;48.464;11.926;2023-04-07T00:23:31;24.60;;;14.83;;
4521;SDS011;2273;48.464;11.926;2023-04-07T00:25:56;23.50;;;15.33;;
4521;SDS011;2273;48.464;11.926;2023-04-07T00:28:22;19.20;;;13.97;;
4521;SDS011;2273;48.464;11.926;2023-04-07T00:30:47;24.27;;;15.67;;
4521;SDS011;2273;48.464;11.926;2023-04-07T00:33:13;23.03;;;14.30;;
4521;SDS011;2273;48.464;11.926;2023-04-07T00:35:38;19.23;;;12.27;;
4521;SDS011;2273;48.464;11.926;2023-04-07T00:38:04;20.00;;;12.80;;
4521;SDS011;2273;48.464;11.926;2023-04-07T00:40:29;18.60;;;12.47;;
4521;SDS011;2273;48.464;11.926;2023-04-07T00:42:54;18.03;;;11.57;;
4521;SDS011;2273;48.464;11.926;2023-04-07T00:45:20;24.23;;;12.90;;
4521;SDS011;2273;48.464;11.926;2023-04-07T00:47:45;25.57;;;13.50;;
4521;SDS011;2273;48.464;11.926;2023-04-07T00:50:11;21.93;;;13.60;;
4521;SDS011;2273;48.464;11.926;2023-04-07T00:52:36;19.43;;;12.97;;
4521;SDS011;2273;48.464;11.926;2023-04-07T00:55:02;17.87;;;12.63;;
4521;SDS011;2273;48.464;11.926;2023-04-07T00:57:27;22.27;;;12.70;;
4521;SDS011;2273;48.464;11.926;2023-04-07T00:59:53;19.30;;;13.13;;
4521;SDS011;2273;48.464;11.926;2023-04-07T01:02:29;23.77;;;13.43;;
4521;SDS011;2273;48.464;11.926;2023-04-07T01:05:02;21.00;;;12.10;;
4521;SDS011;2273;48.464;11.926;2023-04-07T01:10:33;24.40;;;14.15;;
4521;SDS011;2273;48.464;11.926;2023-04-07T01:13:23;28.35;;;14.25;;
4521;SDS011;2273;48.464;11.926;2023-04-07T01:16:05;24.20;;;14.30;;
4521;SDS011;2273;48.464;11.926;2023-04-07T01:18:41;22.52;;;13.43;;
4521;SDS011;2273;48.464;11.926;2023-04-07T01:21:10;28.25;;;14.30;;
4521;SDS011;2273;48.464;11.926;2023-04-07T01:23:51;24.27;;;14.55;;
4521;SDS011;2273;48.464;11.926;2023-04-07T01:26:30;22.23;;;13.90;;
4521;SDS011;2273;48.464;11.926;2023-04-07T01:31:41;27.13;;;13.57;;
4521;SDS011;2273;48.464;11.926;2023-04-07T01:34:10;24.83;;;14.00;;
4521;SDS011;2273;48.464;11.926;2023-04-07T01:36:37;23.95;;;13.70;;
4521;SDS011;2273;48.464;11.926;2023-04-07T01:39:02;19.20;;;12.30;;
4521;SDS011;2273;48.464;11.926;2023-04-07T01:41:28;23.03;;;13.90;;
4521;SDS011;2273;48.464;11.926;2023-04-07T01:43:54;21.13;;;13.30;;
4521;SDS011;2273;48.464;11.926;2023-04-07T01:46:22;20.67;;;13.52;;
4521;SDS011;2273;48.464;11.926;2023-04-07T01:48:48;22.37;;;13.70;;
4521;SDS011;2273;48.464;11.926;2023-04-07T01:51:13;21.47;;;12.10;;
4521;SDS011;2273;48.464;11.926;2023-04-07T01:53:43;22.05;;;14.10;;
4521;SDS011;2273;48.464;11.926;2023-04-07T01:56:10;21.88;;;13.25;;
4521;SDS011;2273;48.464;11.926;2023-04-07T01:58:36;21.83;;;14.20;;
4521;SDS011;2273;48.464;11.926;2023-04-07T02:01:04;22.92;;;14.43;;
4521;SDS011;2273;48.464;11.926;2023-04-07T02:03:43;20.60;;;13.20;;
4521;SDS011;2273;48.464;11.926;2023-04-07T02:06:31;20.40;;;13.88;;
4521;SDS011;2273;48.464;11.926;2023-04-07T02:08:59;23.95;;;13.77;;
4521;SDS011;2273;48.464;11.926;2023-04-07T02:11:28;20.83;;;13.65;;
4521;SDS011;2273;48.464;11.926;2023-04-07T02:14:00;24.50;;;15.15;;
4521;SDS011;2273;48.464;11.926;2023-04-07T02:16:29;22.52;;;14.65;;
4521;SDS011;2273;48.464;11.926;2023-04-07T02:18:55;30.80;;;14.40;;
4521;SDS011;2273;48.464;11.926;2023-04-07T02:21:21;24.60;;;15.43;;
4521;SDS011;2273;48.464;11.926;2023-04-07T02:23:48;21.58;;;14.43;;
4521;SDS011;2273;48.464;11.926;2023-04-07T02:26:13;21.70;;;13.60;;
4521;SDS011;2273;48.464;11.926;2023-04-07T02:28:39;23.30;;;14.73;;
4521;SDS011;2273;48.464;11.926;2023-04-07T02:31:04;21.20;;;13.87;;
4521;SDS011;2273;48.464;11.926;2023-04-07T02:33:31;21.73;;;14.65;;
4521;SDS011;2273;48.464;11.926;2023-04-07T02:35:56;21.83;;;14.40;;
4521;SDS011;2273;48.464;11.926;2023-04-07T02:38:21;19.90;;;13.07;;
4521;SDS011;2273;48.464;11.926;2023-04-07T02:40:47;24.73;;;13.40;;
4521;SDS011;2273;48.464;11.926;2023-04-07T02:43:12;23.03;;;14.27;;
4521;SDS011;2273;48.464;11.926;2023-04-07T02:45:38;23.40;;;14.90;;
4521;SDS011;2273;48.464;11.926;2023-04-07T02:48:03;22.93;;;13.70;;
4521;SDS011;2273;48.464;11.926;2023-04-07T02:50:29;23.17;;;14.63;;
4521;SDS011;2273;48.464;11.926;2023-04-07T02:52:54;21.77;;;14.07;;
4521;SDS011;2273;48.464;11.926;2023-04-07T02:55:20;22.77;;;14.27;;
4521;SDS011;2273;48.464;11.926;2023-04-07T02:57:46;27.57;;;15.87;;
4521;SDS011;2273;48.464;11.926;2023-04-07T03:00:22;22.33;;;14.57;;
4521;SDS011;2273;48.464;11.926;2023-04-07T03:03:03;21.95;;;14.93;;
4521;SDS011;2273;48.464;11.926;2023-04-07T03:05:32;25.48;;;14.57;;
4521;SDS011;2273;48.464;11.926;2023-04-07T03:07:59;26.48;;;15.68;;
4521;SDS011;2273;48.464;11.926;2023-04-07T03:10:24;25.10;;;15.20;;
4521;SDS011;2273;48.464;11.926;2023-04-07T03:12:50;26.07;;;16.50;;
4521;SDS011;2273;48.464;11.926;2023-04-07T03:15:16;24.27;;;15.50;;
4521;SDS011;2273;48.464;11.926;2023-04-07T03:17:45;28.77;;;16.30;;
4521;SDS011;2273;48.464;11.926;2023-04-07T03:20:10;27.93;;;16.43;;
4521;SDS011;2273;48.464;11.926;2023-04-07T03:22:36;24.75;;;15.88;;
4521;SDS011;2273;48.464;11.926;2023-04-07T03:25:06;28.02;;;16.67;;
4521;SDS011;2273;48.464;11.926;2023-04-07T03:27:32;25.60;;;15.27;;
4521;SDS011;2273;48.464;11.926;2023-04-07T03:29:59;28.42;;;16.92;;
4521;SDS011;2273;48.464;11.926;2023-04-07T03:32:25;24.17;;;16.27;;
4521;SDS011;2273;48.464;11.926;2023-04-07T03:34:51;28.20;;;16.63;;
4521;SDS011;2273;48.464;11.926;2023-04-07T03:37:16;26.23;;;16.17;;
4521;SDS011;2273;48.464;11.926;2023-04-07T03:39:45;27.50;;;16.33;;
4521;SDS011;2273;48.464;11.926;2023-04-07T03:42:25;25.27;;;15.40;;
4521;SDS011;2273;48.464;11.926;2023-04-07T03:44:56;27.88;;;15.20;;
4521;SDS011;2273;48.464;11.926;2023-04-07T03:47:22;21.98;;;14.63;;
4521;SDS011;2273;48.464;11.926;2023-04-07T03:49:53;23.50;;;14.15;;
4521;SDS011;2273;48.464;11.926;2023-04-07T03:52:20;24.00;;;12.80;;
4521;SDS011;2273;48.464;11.926;2023-04-07T03:54:49;23.15;;;14.23;;
4521;SDS011;2273;48.464;11.926;2023-04-07T03:57:16;24.13;;;13.85;;
4521;SDS011;2273;48.464;11.926;2023-04-07T03:59:45;22.17;;;12.90;;
4521;SDS011;2273;48.464;11.926;2023-04-07T04:02:12;24.63;;;14.50;;
4521;SDS011;2273;48.464;11.926;2023-04-07T04:04:38;28.80;;;17.10;;
4521;SDS011;2273;48.464;11.926;2023-04-07T04:07:07;30.08;;;18.48;;
4521;SDS011;2273;48.464;11.926;2023-04-07T04:09:48;31.50;;;18.38;;
4521;SDS011;2273;48.464;11.926;2023-04-07T04:12:14;29.40;;;18.40;;
4521;SDS011;2273;48.464;11.926;2023-04-07T04:14:48;34.10;;;18.85;;
4521;SDS011;2273;48.464;11.926;2023-04-07T04:17:15;26.85;;;17.23;;
4521;SDS011;2273;48.464;11.926;2023-04-07T04:19:44;27.10;;;15.65;;
4521;SDS011;2273;48.464;11.926;2023-04-07T04:22:20;23.52;;;15.40;;
4521;SDS011;2273;48.464;11.926;2023-04-07T04:24:52;24.08;;;15.93;;
4521;SDS011;2273;48.464;11.926;2023-04-07T04:27:20;25.30;;;15.85;;
4521;SDS011;2273;48.464;11.926;2023-04-07T04:29:51;27.17;;;15.35;;
4521;SDS011;2273;48.464;11.926;2023-04-07T04:32:23;27.75;;;14.38;;
4521;SDS011;2273;48.464;11.926;2023-04-07T04:34:49;24.77;;;14.20;;
4521;SDS011;2273;48.464;11.926;2023-04-07T04:37:15;23.50;;;15.05;;
4521;SDS011;2273;48.464;11.926;2023-04-07T04:39:43;24.95;;;14.77;;
4521;SDS011;2273;48.464;11.926;2023-04-07T04:42:11;27.58;;;15.43;;
4521;SDS011;2273;48.464;11.926;2023-04-07T04:44:36;23.03;;;14.80;;
4521;SDS011;2273;48.464;11.926;2023-04-07T04:47:04;22.70;;;15.15;;
4521;SDS011;2273;48.464;11.926;2023-04-07T04:49:30;24.80;;;15.27;;
4521;SDS011;2273;48.464;11.926;2023-04-07T04:51:59;24.00;;;14.85;;
4521;SDS011;2273;48.464;11.926;2023-04-07T04:54:26;27.70;;;15.15;;
4521;SDS011;2273;48.464;11.926;2023-04-07T04:56:52;26.33;;;15.97;;
4521;SDS011;2273;48.464;11.926;2023-04-07T04:59:19;26.63;;;15.85;;
4521;SDS011;2273;48.464;11.926;2023-04-07T05:01:55;26.65;;;15.63;;
4521;SDS011;2273;48.464;11.926;2023-04-07T05:04:20;23.70;;;14.83;;
4521;SDS011;2273;48.464;11.926;2023-04-07T05:06:54;23.08;;;13.95;;
4521;SDS011;2273;48.464;11.926;2023-04-07T05:09:24;32.58;;;16.15;;
4521;SDS011;2273;48.464;11.926;2023-04-07T05:11:49;28.77;;;16.20;;
4521;SDS011;2273;48.464;11.926;2023-04-07T05:14:15;24.33;;;15.57;;
4521;SDS011;2273;48.464;11.926;2023-04-07T05:16:47;26.20;;;15.85;;
4521;SDS011;2273;48.464;11.926;2023-04-07T05:19:17;26.38;;;14.82;;
4521;SDS011;2273;48.464;11.926;2023-04-07T05:21:44;24.92;;;15.55;;
4521;SDS011;2273;48.464;11.926;2023-04-07T05:24:10;26.40;;;15.90;;
4521;SDS011;2273;48.464;11.926;2023-04-07T05:26:36;24.33;;;16.00;;
4521;SDS011;2273;48.464;11.926;2023-04-07T05:29:03;25.23;;;15.40;;
4521;SDS011;2273;48.464;11.926;2023-04-07T05:31:28;30.07;;;16.63;;
4521;SDS011;2273;48.464;11.926;2023-04-07T05:33:56;29.50;;;16.90;;
4521;SDS011;2273;48.464;11.926;2023-04-07T05:36:25;30.05;;;17.23;;
4521;SDS011;2273;48.464;11.926;2023-04-07T05:38:54;30.60;;;18.35;;
4521;SDS011;2273;48.464;11.926;2023-04-07T05:41:19;29.63;;;17.27;;
4521;SDS011;2273;48.464;11.926;2023-04-07T05:43:45;32.07;;;18.63;;
4521;SDS011;2273;48.464;11.926;2023-04-07T05:46:11;28.65;;;17.17;;
4521;SDS011;2273;48.464;11.926;2023-04-07T05:48:45;31.08;;;18.50;;
4521;SDS011;2273;48.464;11.926;2023-04-07T05:51:12;37.10;;;21.15;;
4521;SDS011;2273;48.464;11.926;2023-04-07T05:53:37;38.50;;;22.10;;
4521;SDS011;2273;48.464;11.926;2023-04-07T05:56:03;33.80;;;20.23;;
4521;SDS011;2273;48.464;11.926;2023-04-07T05:58:40;30.33;;;18.33;;
4521;SDS011;2273;48.464;11.926;2023-04-07T06:01:07;35.58;;;18.83;;
4521;SDS011;2273;48.464;11.926;2023-04-07T06:03:32;28.10;;;16.27;;
4521;SDS011;2273;48.464;11.926;2023-04-07T06:06:08;31.90;;;17.83;;
4521;SDS011;2273;48.464;11.926;2023-04-07T06:08:33;28.98;;;16.75;;
4521;SDS011;2273;48.464;11.926;2023-04-07T06:10:59;23.33;;;15.20;;
4521;SDS011;2273;48.464;11.926;2023-04-07T06:13:25;25.90;;;16.02;;
4521;SDS011;2273;48.464;11.926;2023-04-07T06:15:53;26.87;;;14.77;;
4521;SDS011;2273;48.464;11.926;2023-04-07T06:18:19;28.35;;;16.50;;
4521;SDS011;2273;48.464;11.926;2023-04-07T06:20:45;24.73;;;15.63;;
4521;SDS011;2273;48.464;11.926;2023-04-07T06:23:10;24.03;;;13.70;;
4521;SDS011;2273;48.464;11.926;2023-04-07T06:25:36;17.43;;;11.57;;
4521;SDS011;2273;48.464;11.926;2023-04-07T06:28:01;17.80;;;11.27;;
4521;SDS011;2273;48.464;11.926;2023-04-07T06:30:27;20.03;;;11.50;;
4521;SDS011;2273;48.464;11.926;2023-04-07T06:32:52;16.40;;;10.23;;
4521;SDS011;2273;48.464;11.926;2023-04-07T06:35:19;16.17;;;10.50;;
4521;SDS011;2273;48.464;11.926;2023-04-07T06:37:44;18.70;;;13.27;;
4521;SDS011;2273;48.464;11.926;2023-04-07T06:40:10;17.57;;;11.60;;
4521;SDS011;2273;48.464;11.926;2023-04-07T06:42:35;16.73;;;11.47;;
4521;SDS011;2273;48.464;11.926;2023-04-07T06:45:16;18.25;;;10.68;;
4521;SDS011;2273;48.464;11.926;2023-04-07T06:47:42;17.80;;;11.40;;
4521;SDS011;2273;48.464;11.926;2023-04-07T06:50:07;19.13;;;12.50;;
4521;SDS011;2273;48.464;11.926;2023-04-07T06:52:33;21.13;;;12.23;;
4521;SDS011;2273;48.464;11.926;2023-04-07T06:54:58;20.00;;;11.90;;
4521;SDS011;2273;48.464;11.926;2023-04-07T06:57:24;19.20;;;11.80;;
4521;SDS011;2273;48.464;11.926;2023-04-07T06:59:49;18.13;;;11.50;;
4521;SDS011;2273;48.464;11.926;2023-04-07T07:02:15;21.03;;;13.77;;
4521;SDS011;2273;48.464;11.926;2023-04-07T07:04:40;21.57;;;13.90;;
4521;SDS011;2273;48.464;11.926;2023-04-07T07:07:05;27.63;;;16.47;;
4521;SDS011;2273;48.464;11.926;2023-04-07T07:09:31;24.20;;;14.93;;
4521;SDS011;2273;48.464;11.926;2023-04-07T07:11:56;25.97;;;16.00;;
4521;SDS011;2273;48.464;11.926;2023-04-07T07:14:22;28.17;;;18.00;;
4521;SDS011;2273;48.464;11.926;2023-04-07T07:16:47;27.80;;;16.07;;
4521;SDS011;2273;48.464;11.926;2023-04-07T07:19:13;22.07;;;15.30;;
4521;SDS011;2273;48.464;11.926;2023-04-07T07:21:38;24.47;;;16.10;;
4521;SDS011;2273;48.464;11.926;2023-04-07T07:24:04;22.03;;;14.40;;
4521;SDS011;2273;48.464;11.926;2023-04-07T07:26:30;25.23;;;14.90;;
4521;SDS011;2273;48.464;11.926;2023-04-07T07:28:55;25.50;;;14.77;;
4521;SDS011;2273;48.464;11.926;2023-04-07T07:31:20;21.57;;;14.83;;
4521;SDS011;2273;48.464;11.926;2023-04-07T07:33:46;22.50;;;13.70;;
4521;SDS011;2273;48.464;11.926;2023-04-07T07:36:13;21.00;;;14.57;;
4521;SDS011;2273;48.464;11.926;2023-04-07T07:38:39;21.83;;;13.97;;
4521;SDS011;2273;48.464;11.926;2023-04-07T07:41:05;21.70;;;14.23;;
4521;SDS011;2273;48.464;11.926;2023-04-07T07:43:31;19.50;;;13.10;;
4521;SDS011;2273;48.464;11.926;2023-04-07T07:45:56;17.27;;;11.60;;
4521;SDS011;2273;48.464;11.926;2023-04-07T07:48:21;15.00;;;9.90;;
4521;SDS011;2273;48.464;11.926;2023-04-07T07:50:47;14.37;;;9.80;;
4521;SDS011;2273;48.464;11.926;2023-04-07T07:53:13;14.70;;;9.47;;
4521;SDS011;2273;48.464;11.926;2023-04-07T07:55:39;14.10;;;8.40;;
4521;SDS011;2273;48.464;11.926;2023-04-07T07:58:05;14.43;;;9.53;;
4521;SDS011;2273;48.464;11.926;2023-04-07T08:00:30;13.10;;;8.60;;
4521;SDS011;2273;48.464;11.926;2023-04-07T08:02:56;14.47;;;9.37;;
4521;SDS011;2273;48.464;11.926;2023-04-07T08:05:21;14.50;;;9.57;;
4521;SDS011;2273;48.464;11.926;2023-04-07T08:07:47;15.80;;;9.57;;
4521;SDS011;2273;48.464;11.926;2023-04-07T08:10:13;15.80;;;10.27;;
4521;SDS011;2273;48.464;11.926;2023-04-07T08:12:38;17.20;;;10.00;;
4521;SDS011;2273;48.464;11.926;2023-04-07T08:15:04;15.10;;;9.83;;
4521;SDS011;2273;48.464;11.926;2023-04-07T08:17:30;15.77;;;10.00;;
4521;SDS011;2273;48.464;11.926;2023-04-07T08:19:55;13.27;;;8.80;;
4521;SDS011;2273;48.464;11.926;2023-04-07T08:22:21;15.40;;;9.17;;
4521;SDS011;2273;48.464;11.926;2023-04-07T08:24:46;14.70;;;10.17;;
4521;SDS011;2273;48.464;11.926;2023-04-07T08:27:12;16.40;;;9.50;;
4521;SDS011;2273;48.464;11.926;2023-04-07T08:29:37;12.80;;;9.53;;
4521;SDS011;2273;48.464;11.926;2023-04-07T08:32:03;12.40;;;8.90;;
4521;SDS011;2273;48.464;11.926;2023-04-07T08:34:28;14.80;;;9.70;;
4521;SDS011;2273;48.464;11.926;2023-04-07T08:36:53;19.90;;;9.80;;
4521;SDS011;2273;48.464;11.926;2023-04-07T08:39:19;14.97;;;10.00;;
4521;SDS011;2273;48.464;11.926;2023-04-07T08:41:44;13.37;;;9.73;;
4521;SDS011;2273;48.464;11.926;2023-04-07T08:44:11;17.50;;;9.63;;
4521;SDS011;2273;48.464;11.926;2023-04-07T08:46:38;13.23;;;9.20;;
4521;SDS011;2273;48.464;11.926;2023-04-07T08:49:07;14.03;;;10.37;;
4521;SDS011;2273;48.464;11.926;2023-04-07T08:51:34;14.43;;;9.27;;
4521;SDS011;2273;48.464;11.926;2023-04-07T08:54:15;16.20;;;10.07;;
4521;SDS011;2273;48.464;11.926;2023-04-07T08:56:43;13.83;;;10.13;;
4521;SDS011;2273;48.464;11.926;2023-04-07T08:59:10;14.77;;;9.13;;
4521;SDS011;2273;48.464;11.926;2023-04-07T09:01:36;16.93;;;9.63;;
4521;SDS011;2273;48.464;11.926;2023-04-07T09:04:02;19.03;;;11.70;;
4521;SDS011;2273;48.464;11.926;2023-04-07T09:06:29;13.40;;;9.73;;
4521;SDS011;2273;48.464;11.926;2023-04-07T09:08:59;14.70;;;9.00;;
4521;SDS011;2273;48.464;11.926;2023-04-07T09:11:26;15.63;;;10.03;;
4521;SDS011;2273;48.464;11.926;2023-04-07T09:13:51;14.87;;;9.57;;
4521;SDS011;2273;48.464;11.926;2023-04-07T09:16:17;17.27;;;10.30;;
4521;SDS011;2273;48.464;11.926;2023-04-07T09:18:42;16.87;;;10.53;;
4521;SDS011;2273;48.464;11.926;2023-04-07T09:21:08;16.13;;;10.40;;
4521;SDS011;2273;48.464;11.926;2023-04-07T09:23:36;13.63;;;10.13;;
4521;SDS011;2273;48.464;11.926;2023-04-07T09:26:19;17.50;;;10.70;;
4521;SDS011;2273;48.464;11.926;2023-04-07T09:28:50;15.50;;;9.73;;
4521;SDS011;2273;48.464;11.926;2023-04-07T09:31:17;12.83;;;9.23;;
4521;SDS011;2273;48.464;11.926;2023-04-07T09:33:43;14.50;;;10.10;;
4521;SDS011;2273;48.464;11.926;2023-04-07T09:36:08;13.30;;;9.20;;
4521;SDS011;2273;48.464;11.926;2023-04-07T09:38:38;13.40;;;9.20;;
4521;SDS011;2273;48.464;11.926;2023-04-07T09:41:14;12.43;;;8.97;;
4521;SDS011;2273;48.464;11.926;2023-04-07T09:43:44;16.83;;;9.77;;
4521;SDS011;2273;48.464;11.926;2023-04-07T09:46:11;16.77;;;10.30;;
4521;SDS011;2273;48.464;11.926;2023-04-07T09:48:41;12.63;;;9.30;;
4521;SDS011;2273;48.464;11.926;2023-04-07T09:53:44;13.40;;;9.20;;
4521;SDS011;2273;48.464;11.926;2023-04-07T09:56:18;14.73;;;10.30;;
4521;SDS011;2273;48.464;11.926;2023-04-07T09:58:46;16.03;;;10.90;;
4521;SDS011;2273;48.464;11.926;2023-04-07T10:01:14;15.20;;;11.10;;
4521;SDS011;2273;48.464;11.926;2023-04-07T10:03:41;14.90;;;9.60;;
4521;SDS011;2273;48.464;11.926;2023-04-07T10:06:06;14.00;;;10.00;;
4521;SDS011;2273;48.464;11.926;2023-04-07T10:08:33;13.47;;;9.27;;
4521;SDS011;2273;48.464;11.926;2023-04-07T10:10:59;15.23;;;10.30;;
4521;SDS011;2273;48.464;11.926;2023-04-07T10:13:28;12.90;;;9.63;;
4521;SDS011;2273;48.464;11.926;2023-04-07T10:15:55;15.03;;;9.97;;
4521;SDS011;2273;48.464;11.926;2023-04-07T10:18:20;15.70;;;11.13;;
4521;SDS011;2273;48.464;11.926;2023-04-07T10:20:47;14.07;;;10.13;;
4521;SDS011;2273;48.464;11.926;2023-04-07T10:23:18;18.67;;;12.10;;
4521;SDS011;2273;48.464;11.926;2023-04-07T10:25:50;17.20;;;11.37;;
4521;SDS011;2273;48.464;11.926;2023-04-07T10:28:18;16.20;;;10.37;;
4521;SDS011;2273;48.464;11.926;2023-04-07T10:30:45;14.67;;;11.20;;
4521;SDS011;2273;48.464;11.926;2023-04-07T10:33:12;13.60;;;9.83;;
4521;SDS011;2273;48.464;11.926;2023-04-07T10:38:29;18.10;;;10.17;;
4521;SDS011;2273;48.464;11.926;2023-04-07T10:40:55;15.17;;;10.57;;
4521;SDS011;2273;48.464;11.926;2023-04-07T10:43:37;15.77;;;11.07;;
4521;SDS011;2273;48.464;11.926;2023-04-07T10:46:08;14.90;;;10.37;;
4521;SDS011;2273;48.464;11.926;2023-04-07T10:48:34;15.60;;;10.03;;
4521;SDS011;2273;48.464;11.926;2023-04-07T10:53:28;16.57;;;10.53;;
4521;SDS011;2273;48.464;11.926;2023-04-07T10:55:53;14.20;;;10.00;;
4521;SDS011;2273;48.464;11.926;2023-04-07T10:58:27;15.20;;;9.60;;
4521;SDS011;2273;48.464;11.926;2023-04-07T11:03:31;14.60;;;10.53;;
4521;SDS011;2273;48.464;11.926;2023-04-07T11:06:02;13.33;;;9.43;;
4521;SDS011;2273;48.464;11.926;2023-04-07T11:08:39;13.53;;;9.70;;
4521;SDS011;2273;48.464;11.926;2023-04-07T11:11:12;13.20;;;9.37;;
4521;SDS011;2273;48.464;11.926;2023-04-07T11:13:39;13.70;;;9.73;;
4521;SDS011;2273;48.464;11.926;2023-04-07T11:16:09;17.73;;;10.70;;
4521;SDS011;2273;48.464;11.926;2023-04-07T11:18:35;12.93;;;10.03;;
4521;SDS011;2273;48.464;11.926;2023-04-07T11:21:01;17.10;;;10.63;;
4521;SDS011;2273;48.464;11.926;2023-04-07T11:23:27;13.80;;;10.20;;
4521;SDS011;2273;48.464;11.926;2023-04-07T11:25:59;14.37;;;10.17;;
4521;SDS011;2273;48.464;11.926;2023-04-07T11:28:26;13.37;;;10.07;;
4521;SDS011;2273;48.464;11.926;2023-04-07T11:30:52;16.87;;;9.87;;
4521;SDS011;2273;48.464;11.926;2023-04-07T11:33:21;13.80;;;10.27;;
4521;SDS011;2273;48.464;11.926;2023-04-07T11:35:48;13.77;;;10.13;;
4521;SDS011;2273;48.464;11.926;2023-04-07T11:38:15;13.80;;;10.30;;
4521;SDS011;2273;48.464;11.926;2023-04-07T11:40:40;14.03;;;9.77;;
4521;SDS011;2273;48.464;11.926;2023-04-07T11:43:16;12.80;;;9.40;;
4521;SDS011;2273;48.464;11.926;2023-04-07T11:45:45;14.00;;;9.00;;
4521;SDS011;2273;48.464;11.926;2023-04-07T11:48:31;11.50;;;8.37;;
4521;SDS011;2273;48.464;11.926;2023-04-07T11:50:58;13.40;;;9.60;;
4521;SDS011;2273;48.464;11.926;2023-04-07T11:53:24;13.73;;;10.13;;
4521;SDS011;2273;48.464;11.926;2023-04-07T11:56:00;13.50;;;9.87;;
4521;SDS011;2273;48.464;11.926;2023-04-07T11:58:30;11.53;;;8.90;;
4521;SDS011;2273;48.464;11.926;2023-04-07T12:01:00;11.60;;;8.60;;
4521;SDS011;2273;48.464;11.926;2023-04-07T12:03:32;10.80;;;8.47;;
4521;SDS011;2273;48.464;11.926;2023-04-07T12:05:59;10.80;;;8.50;;
4521;SDS011;2273;48.464;11.926;2023-04-07T12:08:35;10.60;;;7.80;;
4521;SDS011;2273;48.464;11.926;2023-04-07T12:11:02;10.87;;;8.40;;
4521;SDS011;2273;48.464;11.926;2023-04-07T12:13:29;10.23;;;8.03;;
4521;SDS011;2273;48.464;11.926;2023-04-07T12:15:54;11.90;;;8.03;;
4521;SDS011;2273;48.464;11.926;2023-04-07T12:18:20;12.87;;;8.80;;
4521;SDS011;2273;48.464;11.926;2023-04-07T12:20:45;11.33;;;7.60;;
4521;SDS011;2273;48.464;11.926;2023-04-07T12:23:11;9.27;;;6.97;;
4521;SDS011;2273;48.464;11.926;2023-04-07T12:25:36;10.33;;;6.73;;
4521;SDS011;2273;48.464;11.926;2023-04-07T12:28:01;8.13;;;6.20;;
4521;SDS011;2273;48.464;11.926;2023-04-07T12:30:27;8.17;;;6.40;;
4521;SDS011;2273;48.464;11.926;2023-04-07T12:32:52;9.63;;;7.00;;
4521;SDS011;2273;48.464;11.926;2023-04-07T12:35:18;9.33;;;7.20;;
4521;SDS011;2273;48.464;11.926;2023-04-07T12:37:44;9.13;;;7.00;;
4521;SDS011;2273;48.464;11.926;2023-04-07T12:40:10;10.60;;;8.10;;
4521;SDS011;2273;48.464;11.926;2023-04-07T12:42:36;9.90;;;7.20;;
4521;SDS011;2273;48.464;11.926;2023-04-07T12:45:01;9.10;;;6.97;;
4521;SDS011;2273;48.464;11.926;2023-04-07T12:47:27;9.37;;;6.80;;
4521;SDS011;2273;48.464;11.926;2023-04-07T12:49:52;11.20;;;7.70;;
4521;SDS011;2273;48.464;11.926;2023-04-07T12:52:18;11.43;;;8.40;;
4521;SDS011;2273;48.464;11.926;2023-04-07T12:54:43;10.30;;;7.37;;
4521;SDS011;2273;48.464;11.926;2023-04-07T12:57:09;10.47;;;7.50;;
4521;SDS011;2273;48.464;11.926;2023-04-07T12:59:34;12.77;;;8.30;;
4521;SDS011;2273;48.464;11.926;2023-04-07T13:02:00;10.93;;;8.40;;
4521;SDS011;2273;48.464;11.926;2023-04-07T13:04:26;11.20;;;8.63;;
4521;SDS011;2273;48.464;11.926;2023-04-07T13:06:54;9.97;;;7.43;;
4521;SDS011;2273;48.464;11.926;2023-04-07T13:09:19;9.43;;;7.17;;
4521;SDS011;2273;48.464;11.926;2023-04-07T13:11:45;9.83;;;7.40;;
4521;SDS011;2273;48.464;11.926;2023-04-07T13:14:10;9.03;;;7.10;;
4521;SDS011;2273;48.464;11.926;2023-04-07T13:16:36;9.50;;;7.63;;
4521;SDS011;2273;48.464;11.926;2023-04-07T13:19:01;9.87;;;6.80;;
4521;SDS011;2273;48.464;11.926;2023-04-07T13:21:28;8.30;;;6.53;;
4521;SDS011;2273;48.464;11.926;2023-04-07T13:23:53;8.60;;;6.80;;
4521;SDS011;2273;48.464;11.926;2023-04-07T13:26:18;8.93;;;6.60;;
4521;SDS011;2273;48.464;11.926;2023-04-07T13:28:44;9.50;;;6.57;;
4521;SDS011;2273;48.464;11.926;2023-04-07T13:31:10;7.10;;;6.07;;
4521;SDS011;2273;48.464;11.926;2023-04-07T13:33:39;9.17;;;7.00;;
4521;SDS011;2273;48.464;11.926;2023-04-07T13:36:05;7.20;;;5.40;;
4521;SDS011;2273;48.464;11.926;2023-04-07T13:38:30;9.70;;;6.53;;
4521;SDS011;2273;48.464;11.926;2023-04-07T13:40:56;10.30;;;7.40;;
4521;SDS011;2273;48.464;11.926;2023-04-07T13:43:21;9.10;;;6.60;;
4521;SDS011;2273;48.464;11.926;2023-04-07T13:45:47;8.97;;;6.83;;
4521;SDS011;2273;48.464;11.926;2023-04-07T13:48:13;8.20;;;6.20;;
4521;SDS011;2273;48.464;11.926;2023-04-07T13:50:38;9.10;;;6.60;;
4521;SDS011;2273;48.464;11.926;2023-04-07T13:53:04;8.10;;;5.90;;
4521;SDS011;2273;48.464;11.926;2023-04-07T13:55:30;8.57;;;6.40;;
4521;SDS011;2273;48.464;11.926;2023-04-07T13:57:56;8.83;;;6.30;;
4521;SDS011;2273;48.464;11.926;2023-04-07T14:00:21;9.30;;;5.47;;
4521;SDS011;2273;48.464;11.926;2023-04-07T14:02:47;7.97;;;6.07;;
4521;SDS011;2273;48.464;11.926;2023-04-07T14:05:12;9.20;;;6.23;;
4521;SDS011;2273;48.464;11.926;2023-04-07T14:07:38;8.57;;;6.50;;
4521;SDS011;2273;48.464;11.926;2023-04-07T14:10:04;8.70;;;6.57;;
4521;SDS011;2273;48.464;11.926;2023-04-07T14:12:29;10.03;;;6.60;;
4521;SDS011;2273;48.464;11.926;2023-04-07T14:14:55;9.53;;;7.10;;
4521;SDS011;2273;48.464;11.926;2023-04-07T14:17:21;8.97;;;7.10;;
4521;SDS011;2273;48.464;11.926;2023-04-07T14:19:46;10.10;;;6.40;;
4521;SDS011;2273;48.464;11.926;2023-04-07T14:22:15;10.60;;;7.73;;
4521;SDS011;2273;48.464;11.926;2023-04-07T14:24:40;11.70;;;7.40;;
4521;SDS011;2273;48.464;11.926;2023-04-07T14:27:06;10.73;;;7.23;;
4521;SDS011;2273;48.464;11.926;2023-04-07T14:29:31;14.03;;;6.80;;
4521;SDS011;2273;48.464;11.926;2023-04-07T14:31:56;8.97;;;7.10;;
4521;SDS011;2273;48.464;11.926;2023-04-07T14:34:22;11.60;;;7.83;;
4521;SDS011;2273;48.464;11.926;2023-04-07T14:36:54;14.20;;;8.83;;
4521;SDS011;2273;48.464;11.926;2023-04-07T14:39:20;10.80;;;7.50;;
4521;SDS011;2273;48.464;11.926;2023-04-07T14:41:46;10.20;;;7.97;;
4521;SDS011;2273;48.464;11.926;2023-04-07T14:44:12;9.63;;;7.07;;
4521;SDS011;2273;48.464;11.926;2023-04-07T14:46:37;9.70;;;7.10;;
4521;SDS011;2273;48.464;11.926;2023-04-07T14:49:03;8.90;;;6.83;;
4521;SDS011;2273;48.464;11.926;2023-04-07T14:51:28;9.17;;;6.50;;
4521;SDS011;2273;48.464;11.926;2023-04-07T14:53:54;10.07;;;7.60;;
4521;SDS011;2273;48.464;11.926;2023-04-07T14:56:21;9.90;;;7.27;;
4521;SDS011;2273;48.464;11.926;2023-04-07T14:58:47;10.93;;;7.73;;